createdAt,value
2017-09-17T08:58:30.789Z,62.10
2017-09-17T09:03:33.050Z,61.80
2017-09-17T09:06:00.538Z,61.40
2017-09-17T09:08:28.047Z,62.50
2017-09-17T09:10:55.561Z,62.90
2017-09-17T09:13:23.851Z,61.50
2017-09-17T09:15:51.352Z,61.60
2017-09-17T09:18:18.826Z,61.20
2017-09-17T09:20:46.347Z,61.80
2017-09-17T09:23:14.019Z,61.10
2017-09-17T09:25:41.529Z,60.00
2017-09-17T09:28:38.305Z,59.00
2017-09-17T09:31:05.799Z,58.80
2017-09-17T09:33:33.258Z,58.10
2017-09-17T09:36:00.753Z,57.50
2017-09-17T09:38:28.974Z,57.30
2017-09-17T09:40:56.434Z,57.30
2017-09-17T09:43:23.913Z,57.70
2017-09-17T09:45:51.394Z,57.80
2017-09-17T09:48:18.860Z,56.80
2017-09-17T09:50:46.342Z,55.60
2017-09-17T09:53:13.885Z,55.40
2017-09-17T09:55:42.162Z,55.20
2017-09-17T09:58:10.570Z,55.10
2017-09-17T10:00:38.038Z,54.20
2017-09-17T10:03:05.517Z,54.30
2017-09-17T10:05:32.992Z,53.30
2017-09-17T10:08:01.251Z,52.50
2017-09-17T10:10:28.714Z,52.50
2017-09-17T10:12:56.192Z,53.10
2017-09-17T10:15:24.433Z,52.60
2017-09-17T10:17:51.911Z,52.60
2017-09-17T10:20:19.382Z,53.00
2017-09-17T10:22:47.632Z,51.00
2017-09-17T10:25:15.082Z,51.00
2017-09-17T10:27:42.611Z,50.70
2017-09-17T10:30:10.092Z,51.40
2017-09-17T10:32:37.589Z,52.10
2017-09-17T10:35:05.823Z,51.60
2017-09-17T10:37:33.282Z,51.60
2017-09-17T10:40:00.756Z,51.20
2017-09-17T10:42:28.293Z,52.00
2017-09-17T10:44:55.939Z,52.90
2017-09-17T10:47:23.386Z,52.90
2017-09-17T10:49:50.847Z,53.60
2017-09-17T10:52:18.318Z,53.40
2017-09-17T10:54:45.818Z,51.40
2017-09-17T10:57:13.282Z,50.70
2017-09-17T10:59:40.766Z,49.40
2017-09-17T11:02:08.236Z,49.60
2017-09-17T11:04:35.713Z,49.60
2017-09-17T11:07:03.177Z,49.40
2017-09-17T11:09:31.418Z,45.70
2017-09-17T11:11:58.877Z,45.60
2017-09-17T11:14:26.362Z,45.30
2017-09-17T11:16:53.822Z,44.20
2017-09-17T11:19:21.325Z,44.20
2017-09-17T11:21:48.812Z,43.30
2017-09-17T11:24:16.300Z,44.20
2017-09-17T11:26:43.813Z,42.30
2017-09-17T11:29:11.287Z,41.20
2017-09-17T11:31:38.742Z,40.10
2017-09-17T11:34:06.225Z,41.00
2017-09-17T11:36:33.682Z,42.90
2017-09-17T11:39:01.161Z,43.30
2017-09-17T11:41:28.917Z,44.50
2017-09-17T11:43:57.157Z,45.70
2017-09-17T11:46:24.616Z,45.10
2017-09-17T11:48:52.090Z,44.70
2017-09-17T11:51:19.557Z,44.40
2017-09-17T11:53:47.071Z,44.40
2017-09-17T11:56:14.550Z,43.90
2017-09-17T11:58:42.030Z,44.30
2017-09-17T12:01:09.489Z,43.10
2017-09-17T12:03:37.000Z,43.50
2017-09-17T12:06:05.238Z,40.80
2017-09-17T12:08:32.723Z,40.70
2017-09-17T12:11:01.506Z,37.60
2017-09-17T12:13:29.746Z,35.80
2017-09-17T12:15:57.206Z,35.70
2017-09-17T12:18:24.734Z,34.40
2017-09-17T12:20:52.193Z,37.00
2017-09-17T12:23:19.666Z,38.30
2017-09-17T12:25:47.117Z,39.00
2017-09-17T12:28:14.620Z,39.90
2017-09-17T12:30:42.065Z,39.50
2017-09-17T12:33:09.521Z,39.70
2017-09-17T12:35:36.993Z,39.50
2017-09-17T12:38:04.441Z,39.80
2017-09-17T12:40:31.924Z,40.70
2017-09-17T12:43:00.142Z,40.70
2017-09-17T12:45:27.620Z,40.60
2017-09-17T12:47:55.069Z,41.70
2017-09-17T12:50:22.547Z,41.60
2017-09-17T12:52:50.007Z,41.90
2017-09-17T12:55:17.481Z,41.60
2017-09-17T12:57:45.708Z,42.40
2017-09-17T13:00:13.190Z,42.40
2017-09-17T13:02:40.655Z,43.00
2017-09-17T13:05:08.146Z,43.10
2017-09-17T13:07:35.615Z,42.70
2017-09-17T13:10:03.125Z,42.50
2017-09-17T13:12:30.606Z,42.30
2017-09-17T13:14:58.837Z,41.80
2017-09-17T13:17:26.347Z,41.80
2017-09-17T13:19:54.336Z,42.10
2017-09-17T13:22:21.816Z,42.80
2017-09-17T13:24:49.289Z,43.80
2017-09-17T13:27:17.564Z,44.00
2017-09-17T13:29:45.015Z,43.90
2017-09-17T13:32:12.778Z,44.50
2017-09-17T13:34:40.239Z,44.80
2017-09-17T13:37:07.725Z,44.40
2017-09-17T13:39:36.481Z,45.30
2017-09-17T13:42:03.959Z,45.20
2017-09-17T13:44:31.449Z,45.80
2017-09-17T13:46:58.903Z,45.40
2017-09-17T13:49:26.398Z,44.40
2017-09-17T13:51:53.854Z,42.60
2017-09-17T13:54:21.330Z,42.10
2017-09-17T13:56:48.803Z,40.90
2017-09-17T13:59:17.073Z,40.60
2017-09-17T14:01:46.109Z,41.20
2017-09-17T14:04:15.034Z,41.50
2017-09-17T14:06:59.922Z,39.00
2017-09-17T14:12:27.982Z,38.50
2017-09-17T14:14:55.537Z,39.60
2017-09-17T14:17:22.993Z,39.60
2017-09-17T14:19:50.466Z,40.30
2017-09-17T14:22:17.922Z,40.60
2017-09-17T14:24:45.398Z,40.70
2017-09-17T14:27:12.861Z,40.30
2017-09-17T14:29:40.353Z,41.00
2017-09-17T14:32:07.817Z,41.60
2017-09-17T14:34:35.306Z,42.20
2017-09-17T14:37:02.771Z,42.90
2017-09-17T14:39:30.245Z,43.30
2017-09-17T14:41:57.704Z,43.70
2017-09-17T14:44:25.200Z,44.10
2017-09-17T14:46:52.649Z,44.90
2017-09-17T14:49:20.131Z,45.70
2017-09-17T14:51:47.610Z,45.60
2017-09-17T14:54:15.087Z,46.00
2017-09-17T14:56:42.542Z,45.70
2017-09-17T14:59:10.018Z,45.20
2017-09-17T15:01:37.465Z,45.40
2017-09-17T15:04:04.954Z,45.20
2017-09-17T15:06:32.413Z,45.10
2017-09-17T15:09:00.662Z,44.70
2017-09-17T15:11:28.117Z,44.70
2017-09-17T15:13:55.599Z,44.60
2017-09-17T15:16:23.049Z,44.30
2017-09-17T15:18:50.533Z,45.00
2017-09-17T15:21:17.995Z,44.80
2017-09-17T15:23:45.466Z,45.00
2017-09-17T15:26:12.930Z,45.20
2017-09-17T15:28:40.419Z,45.20
2017-09-17T15:31:07.877Z,46.10
2017-09-17T15:33:36.153Z,46.70
2017-09-17T15:36:03.671Z,47.20
2017-09-17T15:38:31.163Z,46.40
2017-09-17T15:40:58.639Z,46.30
2017-09-17T15:43:26.891Z,47.10
2017-09-17T15:45:54.371Z,46.80
2017-09-17T15:48:22.597Z,48.20
2017-09-17T15:50:50.078Z,47.60
2017-09-17T15:53:17.538Z,48.30
2017-09-17T15:55:45.016Z,47.20
2017-09-17T15:58:12.480Z,46.90
2017-09-17T16:00:40.735Z,47.70
2017-09-17T16:03:08.185Z,47.70
2017-09-17T16:05:35.666Z,47.90
2017-09-17T16:08:03.130Z,47.70
2017-09-17T16:10:31.692Z,47.40
2017-09-17T16:12:59.158Z,47.30
2017-09-17T16:15:26.620Z,47.80
2017-09-17T16:17:54.127Z,47.80
2017-09-17T16:20:21.601Z,47.80
2017-09-17T16:22:49.086Z,48.10
2017-09-17T16:25:16.701Z,48.10
2017-09-17T16:27:44.389Z,48.50
2017-09-17T16:30:11.964Z,48.10
2017-09-17T16:32:39.437Z,47.80
2017-09-17T16:35:07.147Z,48.00
2017-09-17T16:37:34.630Z,48.20
2017-09-17T16:40:02.193Z,48.50
2017-09-17T16:42:29.695Z,48.00
2017-09-17T16:44:57.271Z,48.00
2017-09-17T16:47:24.837Z,48.30
2017-09-17T16:49:52.292Z,49.00
2017-09-17T16:52:19.768Z,49.70
2017-09-17T16:54:47.219Z,50.80
2017-09-17T16:57:14.708Z,50.90
2017-09-17T16:59:42.173Z,51.10
2017-09-17T17:02:09.654Z,50.40
2017-09-17T17:04:37.910Z,51.90
2017-09-17T17:07:05.386Z,51.90
2017-09-17T17:09:32.870Z,53.50
2017-09-17T17:12:01.258Z,53.90
2017-09-17T17:14:28.734Z,53.90
2017-09-17T17:16:56.231Z,54.30
2017-09-17T17:19:23.714Z,54.90
2017-09-17T17:21:51.250Z,56.20
2017-09-17T17:24:18.722Z,56.40
2017-09-17T17:26:46.209Z,56.90
2017-09-17T17:29:13.888Z,56.90
2017-09-17T17:31:41.371Z,56.80
2017-09-17T17:34:08.845Z,57.30
2017-09-17T17:36:36.334Z,57.70
2017-09-17T17:39:03.815Z,58.30
2017-09-17T17:41:31.298Z,58.20
2017-09-17T17:43:58.778Z,58.30
2017-09-17T17:46:26.270Z,58.20
2017-09-17T17:48:53.746Z,58.50
2017-09-17T17:51:21.993Z,57.00
2017-09-17T17:53:49.458Z,57.00
2017-09-17T17:56:16.995Z,57.30
2017-09-17T17:58:44.494Z,57.80
2017-09-17T18:01:11.961Z,58.10
2017-09-17T18:03:39.450Z,58.40
2017-09-17T18:06:06.913Z,57.90
2017-09-17T18:08:35.266Z,58.10
2017-09-17T18:11:02.737Z,58.10
2017-09-17T18:13:30.974Z,57.40
2017-09-17T18:15:58.478Z,57.40
2017-09-17T18:18:26.730Z,58.00
2017-09-17T18:20:54.200Z,57.90
2017-09-17T18:23:21.729Z,57.90
2017-09-17T18:25:49.218Z,58.20
2017-09-17T18:28:16.822Z,58.50
2017-09-17T18:30:44.274Z,59.00
2017-09-17T18:33:11.763Z,59.20
2017-09-17T18:35:39.249Z,59.10
2017-09-17T18:38:06.729Z,59.60
2017-09-17T18:40:34.202Z,60.00
2017-09-17T18:43:01.675Z,60.60
2017-09-17T18:45:29.196Z,60.30
2017-09-17T18:47:56.697Z,60.60
2017-09-17T18:50:29.919Z,60.80
2017-09-17T18:52:57.393Z,60.40
2017-09-17T18:55:25.625Z,60.90
2017-09-17T18:57:53.123Z,60.80
2017-09-17T19:00:20.590Z,61.60
2017-09-17T19:02:48.833Z,63.80
2017-09-17T19:05:16.292Z,63.80
2017-09-17T19:07:43.766Z,64.80
2017-09-17T19:10:11.364Z,65.10
2017-09-17T19:12:38.853Z,65.00
2017-09-17T19:15:08.378Z,65.00
2017-09-17T19:17:36.517Z,64.10
2017-09-17T19:20:04.086Z,64.00
2017-09-17T19:22:31.622Z,64.50
2017-09-17T19:24:59.617Z,65.00
2017-09-17T19:27:27.121Z,65.20
2017-09-17T19:29:54.627Z,65.20
2017-09-17T19:32:22.281Z,65.60
2017-09-17T19:34:49.904Z,65.40
2017-09-17T19:37:18.139Z,65.70
2017-09-17T19:39:45.640Z,65.60
2017-09-17T19:42:13.148Z,66.10
2017-09-17T19:44:40.650Z,66.80
2017-09-17T19:47:08.144Z,66.40
2017-09-17T19:49:35.666Z,67.00
2017-09-17T19:52:03.162Z,67.30
2017-09-17T19:54:30.676Z,67.50
2017-09-17T19:56:58.177Z,67.90
2017-09-17T19:59:25.712Z,67.80
2017-09-17T20:01:53.194Z,68.70
2017-09-17T20:04:20.694Z,69.30
2017-09-17T20:06:48.230Z,69.70
2017-09-17T20:09:15.739Z,70.10
2017-09-17T20:11:43.242Z,70.80
2017-09-17T20:14:10.749Z,70.60
2017-09-17T20:16:38.238Z,71.10
2017-09-17T20:19:05.732Z,70.90
2017-09-17T20:21:33.226Z,70.80
2017-09-17T20:24:01.492Z,70.80
2017-09-17T20:26:28.999Z,70.80
2017-09-17T20:28:56.498Z,70.90
2017-09-17T20:31:24.769Z,71.60
2017-09-17T20:33:52.323Z,71.60
2017-09-17T20:36:19.820Z,72.00
2017-09-17T20:38:47.327Z,72.00
2017-09-17T20:41:14.841Z,72.00
2017-09-17T20:43:42.349Z,72.20
2017-09-17T20:46:09.829Z,72.10
2017-09-17T20:48:37.347Z,72.50
2017-09-17T20:51:04.895Z,72.20
2017-09-17T20:53:32.397Z,70.00
2017-09-17T20:55:59.958Z,72.00
2017-09-17T20:58:27.475Z,71.80
2017-09-17T21:00:54.972Z,72.60
2017-09-17T21:03:22.492Z,72.10
2017-09-17T21:05:49.958Z,72.80
2017-09-17T21:08:17.460Z,72.00
2017-09-17T21:10:44.959Z,72.50
2017-09-17T21:13:12.450Z,72.70
2017-09-17T21:15:39.971Z,72.60
2017-09-17T21:18:07.474Z,72.90
2017-09-17T21:20:35.010Z,73.40
2017-09-17T21:23:02.486Z,73.20
2017-09-17T21:25:29.995Z,72.60
2017-09-17T21:27:58.218Z,72.90
2017-09-17T21:30:25.706Z,72.90
2017-09-17T21:32:53.188Z,72.90
2017-09-17T21:35:20.691Z,72.90
2017-09-17T21:37:48.179Z,73.00
2017-09-17T21:40:15.650Z,73.00
2017-09-17T21:42:43.908Z,73.10
2017-09-17T21:45:11.414Z,73.00
2017-09-17T21:47:38.882Z,72.80
2017-09-17T21:50:06.367Z,72.90
2017-09-17T21:52:33.833Z,72.70
2017-09-17T21:55:01.324Z,72.50
2017-09-17T21:57:29.567Z,72.10
2017-09-17T21:59:57.061Z,72.20
2017-09-17T22:02:24.533Z,72.60
2017-09-17T22:04:52.037Z,71.80
2017-09-17T22:07:19.499Z,71.90
2017-09-17T22:09:46.997Z,71.70
2017-09-17T22:12:14.506Z,71.80
2017-09-17T22:14:42.001Z,71.70
2017-09-17T22:17:09.485Z,71.60
2017-09-17T22:19:36.981Z,71.70
2017-09-17T22:22:04.451Z,71.70
2017-09-17T22:24:31.931Z,71.60
2017-09-17T22:26:59.417Z,71.70
2017-09-17T22:29:26.894Z,71.70
2017-09-17T22:31:54.381Z,71.70
2017-09-17T22:34:21.847Z,71.90
2017-09-17T22:36:49.333Z,71.80
2017-09-17T22:39:16.800Z,72.00
2017-09-17T22:41:44.274Z,71.80
2017-09-17T22:44:11.763Z,71.70
2017-09-17T22:46:39.237Z,72.00
2017-09-17T22:49:06.713Z,71.90
2017-09-17T22:51:34.208Z,72.50
2017-09-17T22:54:01.669Z,72.10
2017-09-17T22:56:29.139Z,72.20
2017-09-17T22:58:56.630Z,72.20
2017-09-17T23:01:24.882Z,72.60
2017-09-17T23:03:52.367Z,72.60
2017-09-17T23:06:20.597Z,72.70
2017-09-17T23:08:48.073Z,72.60
2017-09-17T23:11:15.558Z,72.80
2017-09-17T23:13:43.782Z,73.00
2017-09-17T23:16:11.253Z,73.00
2017-09-17T23:18:38.722Z,73.20
2017-09-17T23:21:06.201Z,73.40
2017-09-17T23:23:33.695Z,73.60
2017-09-17T23:26:01.174Z,73.60
2017-09-17T23:28:28.650Z,73.60
2017-09-17T23:30:56.139Z,74.00
2017-09-17T23:33:24.361Z,73.30
2017-09-17T23:35:51.886Z,73.40
2017-09-17T23:38:19.378Z,73.50
2017-09-17T23:40:46.838Z,73.40
2017-09-17T23:43:14.309Z,73.20
2017-09-17T23:45:41.793Z,73.10
2017-09-17T23:48:10.030Z,73.30
2017-09-17T23:50:37.491Z,73.30
2017-09-17T23:53:04.970Z,73.20
2017-09-17T23:55:32.426Z,73.40
2017-09-17T23:57:59.927Z,73.50
